Terminal Aerodrome Forecast
Issued by NWS

Home | Current Version | Previous Version | Text Only | Print | Product List | Glossary On
Versions: 1 2 3 4 5 6 7 8 9 10 11 12 13 14 15 16 17 18
000
FTUS43 KILX 301900 AAA
TAFBMI
TAF AMD
KBMI 301937Z 3020/0118 06009KT P6SM SCT045 BKN250
     FM010000 09008KT P6SM SCT250
     FM010900 11007KT 5SM BR SCT250
     FM011400 15010KT P6SM SCT040 SCT250=

USA.gov is the U.S. government's official web portal to all federal, state and local government web resources and services.